Time;durP1;ratioP1;P1;durP2;ratioP2;P2;SDS_P1;SDS_P2;PMS_P1;PMS_P2;Temp;Humidity;BMP_temperature;BMP_pressure;BME280_temperature;BME280_humidity;BME280_pressure;Samples;Min_cycle;Max_cycle;Signal;HPM_P1;HPM_P2
2021/12/07 00:01:43;;;;;;;;;;;;;;;;;;4893724;28;873;-60
2021/12/07 00:04:08;;;;;;;;;;;;;;;;;;4893560;28;794;-60
2021/12/07 00:06:35;;;;;;;;;;;;;;;;;;4893169;28;916;-59
2021/12/07 00:09:00;;;;;;;;;;;;;;;;;;4893023;28;1368;-59
2021/12/07 00:11:27;;;;;;;;;;;;;;;;;;4892846;29;819;-60
2021/12/07 00:13:53;;;;;;;;;;;;;;;;;;4893219;28;888;-59
2021/12/07 00:16:19;;;;;;;;;;;;;;;;;;4893011;28;823;-60
2021/12/07 00:18:45;;;;;;;;;;;;;;;;;;4893404;28;1982;-60
2021/12/07 00:21:10;;;;;;;;;;;;;;;;;;4892676;28;897;-60
2021/12/07 00:23:35;;;;;;;;;;;;;;;;;;4891147;28;850;-59
2021/12/07 00:26:01;;;;;;;;;;;;;;;;;;4892904;29;849;-60
2021/12/07 00:28:26;;;;;;;;;;;;;;;;;;4895569;28;968;-60
2021/12/07 00:30:52;;;;;;;;;;;;;;;;;;4896761;28;901;-60
2021/12/07 00:35:44;;;;;;;;;;;;;;;;;;4896320;28;732;-59
2021/12/07 00:38:13;;;;;;;;;;;;;;;;;;4896545;29;1958;-60
2021/12/07 00:40:39;;;;;;;;;;;;;;;;;;4896261;28;850;-60
2021/12/07 00:43:05;;;;;;;;;;;;;;;;;;4896327;28;2005;-59
2021/12/07 00:45:33;;;;;;;;;;;;;;;;;;4896212;29;831;-59
2021/12/07 00:48:00;;;;;;;;;;;;;;;;;;4896567;28;814;-59
2021/12/07 00:50:25;;;;;;;;;;;;;;;;;;4896143;28;897;-60
2021/12/07 00:52:51;;;;;;;;;;;;;;;;;;4896160;29;925;-60
2021/12/07 00:55:18;;;;;;;;;;;;;;;;;;4896129;28;1040;-60
2021/12/07 00:57:44;;;;;;;;;;;;;;;;;;4896299;28;1907;-60
2021/12/07 01:00:11;;;;;;;;;;;;;;;;;;4896130;28;784;-60
2021/12/07 01:02:37;;;;;;;;;;;;;;;;;;4895862;28;1062;-60
2021/12/07 01:05:10;;;;;;;;;;;;;;;;;;4895692;28;870;-59
2021/12/07 01:07:55;;;;;;;;;;;;;;;;;;4895687;29;815;-60
2021/12/07 01:26:46;;;;;;;;;;;;;;;;;;4896040;28;677;-60
2021/12/07 01:29:11;;;;;;;;;;;;;;;;;;4895680;28;830;-60
2021/12/07 01:45:09;;;;;;;;;;;;;;;;;;4895432;28;682;-60
2021/12/07 01:47:52;;;;;;;;;;;;;;;;;;4894932;29;1503;-60
2021/12/07 01:53:19;;;;;;;;;;;;;;;;;;4942342;28;1130;-60
2021/12/07 02:01:03;;;;;;;;;;;;;;;;;;4913966;29;909;-59
2021/12/07 02:03:28;;;;;;;;;;;;;;;;;;4913513;29;894;-60
2021/12/07 02:05:53;;;;;;;;;;;;;;;;;;4913795;29;1049;-60
2021/12/07 02:08:19;;;;;;;;;;;;;;;;;;4913409;29;838;-59
2021/12/07 02:10:44;;;;;;;;;;;;;;;;;;4913190;29;1205;-60
2021/12/07 02:14:14;;;;;;;;;;;;;;;;;;4913511;29;834;-60
2021/12/07 02:16:08;;;;;;;;;;;;;;;;;;4913254;29;845;-60
2021/12/07 02:18:33;;;;;;;;;;;;;;;;;;4913060;29;1895;-60
2021/12/07 02:21:28;;;;;;;;;;;;;;;;;;4913600;29;771;-60
2021/12/07 02:23:53;;;;;;;;;;;;;;;;;;4908245;28;1184;-60
2021/12/07 02:26:19;;;;;;;;;;;;;;;;;;4913100;29;1107;-60
2021/12/07 02:28:45;;;;;;;;;;;;;;;;;;4927738;29;830;-60
2021/12/07 02:31:11;;;;;;;;;;;;;;;;;;4913052;29;821;-60
2021/12/07 02:33:37;;;;;;;;;;;;;;;;;;4913492;29;837;-60
2021/12/07 02:36:03;;;;;;;;;;;;;;;;;;4913444;29;810;-60
2021/12/07 02:38:29;;;;;;;;;;;;;;;;;;4913640;29;1960;-60
2021/12/07 02:40:54;;;;;;;;;;;;;;;;;;4913516;29;889;-60
2021/12/07 02:43:20;;;;;;;;;;;;;;;;;;4912818;29;890;-60
2021/12/07 02:45:45;;;;;;;;;;;;;;;;;;4913342;29;886;-60
2021/12/07 02:48:10;;;;;;;;;;;;;;;;;;4927790;29;921;-60
2021/12/07 02:50:36;;;;;;;;;;;;;;;;;;4912744;29;830;-60
2021/12/07 02:53:01;;;;;;;;;;;;;;;;;;4913461;29;1011;-60
2021/12/07 02:55:27;;;;;;;;;;;;;;;;;;4913475;29;1038;-60
2021/12/07 02:57:52;;;;;;;;;;;;;;;;;;4912932;29;1915;-60
2021/12/07 03:00:22;;;;;;;;;;;;;;;;;;4927837;29;889;-59
2021/12/07 03:02:56;;;;;;;;;;;;;;;;;;4927553;29;866;-59
2021/12/07 03:27:18;;;;;;;;;;;;;;;;;;4913593;29;695;-60
2021/12/07 03:29:44;;;;;;;;;;;;;;;;;;4912690;29;849;-60
2021/12/07 03:32:09;;;;;;;;;;;;;;;;;;4912383;29;917;-60
2021/12/07 03:34:34;;;;;;;;;;;;;;;;;;4913009;29;1044;-60
2021/12/07 03:37:00;;;;;;;;;;;;;;;;;;4912857;29;1879;-60
2021/12/07 03:39:25;;;;;;;;;;;;;;;;;;4912972;29;1189;-60
2021/12/07 03:41:51;;;;;;;;;;;;;;;;;;4912569;29;929;-59
2021/12/07 03:44:16;;;;;;;;;;;;;;;;;;4912588;29;965;-60
2021/12/07 03:46:42;;;;;;;;;;;;;;;;;;4912114;29;927;-60
2021/12/07 03:49:07;;;;;;;;;;;;;;;;;;4912288;29;1186;-60
2021/12/07 03:51:32;;;;;;;;;;;;;;;;;;4926713;29;909;-60
2021/12/07 03:53:58;;;;;;;;;;;;;;;;;;4911894;29;791;-60
2021/12/07 03:56:23;;;;;;;;;;;;;;;;;;4912444;29;891;-60
2021/12/07 03:58:48;;;;;;;;;;;;;;;;;;4911528;29;1914;-60
2021/12/07 04:01:14;;;;;;;;;;;;;;;;;;4911133;29;1008;-60
2021/12/07 04:03:40;;;;;;;;;;;;;;;;;;4911751;29;873;-59
2021/12/07 04:06:06;;;;;;;;;;;;;;;;;;4911719;29;924;-60
2021/12/07 04:08:32;;;;;;;;;;;;;;;;;;4911899;29;902;-59
2021/12/07 04:10:58;;;;;;;;;;;;;;;;;;4911252;29;1370;-59
2021/12/07 04:13:23;;;;;;;;;;;;;;;;;;4911960;29;886;-59
2021/12/07 04:15:49;;;;;;;;;;;;;;;;;;4926249;29;858;-60
2021/12/07 04:18:14;;;;;;;;;;;;;;;;;;4911461;29;1931;-60
2021/12/07 04:20:40;;;;;;;;;;;;;;;;;;4911539;29;814;-60
2021/12/07 04:23:05;;;;;;;;;;;;;;;;;;4911980;29;817;-60
2021/12/07 04:25:31;;;;;;;;;;;;;;;;;;4911311;29;945;-60
2021/12/07 04:27:56;;;;;;;;;;;;;;;;;;4910165;29;1288;-59
2021/12/07 04:30:23;;;;;;;;;;;;;;;;;;4911733;29;969;-60
2021/12/07 04:32:49;;;;;;;;;;;;;;;;;;4911647;29;893;-60
2021/12/07 04:35:15;;;;;;;;;;;;;;;;;;4911601;29;932;-60
2021/12/07 04:37:41;;;;;;;;;;;;;;;;;;4911505;29;1977;-60
2021/12/07 04:40:07;;;;;;;;;;;;;;;;;;4911864;29;952;-60
2021/12/07 04:42:32;;;;;;;;;;;;;;;;;;4912092;28;1132;-60
2021/12/07 04:45:02;;;;;;;;;;;;;;;;;;4911737;29;830;-60
2021/12/07 04:47:48;;;;;;;;;;;;;;;;;;4911710;29;1238;-59
2021/12/07 04:58:21;;;;;;;;;;;;;;;;;;4911747;29;1910;-60
2021/12/07 05:00:46;;;;;;;;;;;;;;;;;;4912247;29;791;-60
2021/12/07 05:03:14;;;;;;;;;;;;;;;;;;4911762;29;805;-60
2021/12/07 05:05:46;;;;;;;;;;;;;;;;;;4911968;29;1024;-60
2021/12/07 05:08:14;;;;;;;;;;;;;;;;;;4911725;29;849;-60
2021/12/07 05:39:47;;;;;;;;;;;;;;;;;;4912876;29;974;-60
2021/12/07 05:42:12;;;;;;;;;;;;;;;;;;4894715;28;1158;-60
2021/12/07 05:44:38;;;;;;;;;;;;;;;;;;4895535;29;1198;-60
2021/12/07 05:47:04;;;;;;;;;;;;;;;;;;4895920;29;989;-60
2021/12/07 05:49:29;;;;;;;;;;;;;;;;;;4895602;28;941;-60
2021/12/07 05:51:54;;;;;;;;;;;;;;;;;;4895435;28;898;-61
2021/12/07 05:54:20;;;;;;;;;;;;;;;;;;4895274;28;981;-60
2021/12/07 05:56:45;;;;;;;;;;;;;;;;;;4895594;29;870;-60
2021/12/07 05:59:11;;;;;;;;;;;;;;;;;;4895477;28;1970;-60
2021/12/07 06:01:36;;;;;;;;;;;;;;;;;;4895655;29;1044;-60
2021/12/07 06:04:01;;;;;;;;;;;;;;;;;;4895502;28;922;-60
2021/12/07 06:06:26;;;;;;;;;;;;;;;;;;4895221;28;1052;-61
2021/12/07 06:08:52;;;;;;;;;;;;;;;;;;4895507;28;834;-60
2021/12/07 06:11:18;;;;;;;;;;;;;;;;;;4894790;28;1215;-60
2021/12/07 06:13:43;;;;;;;;;;;;;;;;;;4895025;28;1017;-61
2021/12/07 06:16:09;;;;;;;;;;;;;;;;;;4894653;28;949;-61
2021/12/07 06:18:35;;;;;;;;;;;;;;;;;;4894868;28;1972;-60
2021/12/07 06:21:01;;;;;;;;;;;;;;;;;;4894633;28;858;-60
2021/12/07 06:23:26;;;;;;;;;;;;;;;;;;4894726;28;910;-61
2021/12/07 06:25:54;;;;;;;;;;;;;;;;;;4894025;28;826;-60
2021/12/07 06:28:19;;;;;;;;;;;;;;;;;;4894456;28;913;-60
2021/12/07 06:30:46;;;;;;;;;;;;;;;;;;4893397;29;1393;-60
2021/12/07 06:33:12;;;;;;;;;;;;;;;;;;4894461;28;894;-60
2021/12/07 06:35:38;;;;;;;;;;;;;;;;;;4894444;29;802;-61
2021/12/07 06:38:03;;;;;;;;;;;;;;;;;;4894311;28;1945;-60
2021/12/07 06:40:29;;;;;;;;;;;;;;;;;;4892958;28;1435;-60
2021/12/07 06:42:59;;;;;;;;;;;;;;;;;;4894538;29;969;-60
2021/12/07 06:45:25;;;;;;;;;;;;;;;;;;4894556;28;817;-60
2021/12/07 06:47:51;;;;;;;;;;;;;;;;;;4894579;28;901;-60
2021/12/07 06:50:16;;;;;;;;;;;;;;;;;;4894455;28;901;-60
2021/12/07 06:52:41;;;;;;;;;;;;;;;;;;4908515;28;1005;-60
2021/12/07 06:55:07;;;;;;;;;;;;;;;;;;4894114;28;909;-60
2021/12/07 06:57:32;;;;;;;;;;;;;;;;;;4894389;28;1966;-60
2021/12/07 06:59:58;;;;;;;;;;;;;;;;;;4908408;28;829;-60
2021/12/07 07:02:23;;;;;;;;;;;;;;;;;;4894217;28;865;-60
2021/12/07 07:04:48;;;;;;;;;;;;;;;;;;4892823;28;886;-60
2021/12/07 07:07:16;;;;;;;;;;;;;;;;;;4893692;28;881;-60
2021/12/07 07:09:41;;;;;;;;;;;;;;;;;;4893861;29;1349;-60
2021/12/07 07:12:07;;;;;;;;;;;;;;;;;;4893485;29;656;-60
2021/12/07 07:14:32;;;;;;;;;;;;;;;;;;4892978;28;1094;-60
2021/12/07 07:16:57;;;;;;;;;;;;;;;;;;4894191;29;1989;-60
2021/12/07 07:19:24;;;;;;;;;;;;;;;;;;4892600;28;992;-60
2021/12/07 07:21:49;;;;;;;;;;;;;;;;;;4894097;29;839;-60
2021/12/07 07:24:15;;;;;;;;;;;;;;;;;;4893794;28;989;-60
2021/12/07 07:26:40;;;;;;;;;;;;;;;;;;4896554;29;1173;-60
2021/12/07 07:29:05;;;;;;;;;;;;;;;;;;4897858;28;1169;-60
2021/12/07 07:31:30;;;;;;;;;;;;;;;;;;4893452;28;1221;-60
2021/12/07 07:33:56;;;;;;;;;;;;;;;;;;4893673;28;961;-60
2021/12/07 07:36:21;;;;;;;;;;;;;;;;;;4907683;29;1253;-60
2021/12/07 07:38:47;;;;;;;;;;;;;;;;;;4908181;28;1967;-60
2021/12/07 07:41:12;;;;;;;;;;;;;;;;;;4893528;28;890;-60
2021/12/07 07:43:37;;;;;;;;;;;;;;;;;;4893580;28;933;-59
2021/12/07 07:46:02;;;;;;;;;;;;;;;;;;4904631;28;1153;-60
2021/12/07 07:48:28;;;;;;;;;;;;;;;;;;4912369;29;873;-60
2021/12/07 07:50:53;;;;;;;;;;;;;;;;;;4912283;29;937;-60
2021/12/07 07:53:19;;;;;;;;;;;;;;;;;;4926438;29;1004;-59
2021/12/07 07:55:44;;;;;;;;;;;;;;;;;;4912586;29;971;-60
2021/12/07 07:58:10;;;;;;;;;;;;;;;;;;4911735;29;1910;-60
2021/12/07 08:00:36;;;;;;;;;;;;;;;;;;4911934;29;944;-61
2021/12/07 08:03:01;;;;;;;;;;;;;;;;;;4910522;29;1688;-60
2021/12/07 08:05:27;;;;;;;;;;;;;;;;;;4911896;29;948;-60
2021/12/07 08:07:52;;;;;;;;;;;;;;;;;;4912298;29;1055;-60
2021/12/07 08:10:19;;;;;;;;;;;;;;;;;;4911901;29;1091;-60
2021/12/07 08:12:45;;;;;;;;;;;;;;;;;;4911370;29;861;-59
2021/12/07 08:15:10;;;;;;;;;;;;;;;;;;4912015;29;1192;-60
2021/12/07 08:17:35;;;;;;;;;;;;;;;;;;4911734;29;1919;-60
2021/12/07 08:20:01;;;;;;;;;;;;;;;;;;4911861;29;826;-61
2021/12/07 08:22:28;;;;;;;;;;;;;;;;;;4912225;29;822;-60
2021/12/07 08:24:54;;;;;;;;;;;;;;;;;;4911833;29;906;-60
2021/12/07 08:27:19;;;;;;;;;;;;;;;;;;4911461;29;992;-60
2021/12/07 08:29:44;;;;;;;;;;;;;;;;;;4912149;29;855;-61
2021/12/07 08:32:09;;;;;;;;;;;;;;;;;;4926083;29;976;-60
2021/12/07 08:34:35;;;;;;;;;;;;;;;;;;4911823;29;1004;-60
2021/12/07 08:37:00;;;;;;;;;;;;;;;;;;4911750;29;1964;-61
2021/12/07 08:39:25;;;;;;;;;;;;;;;;;;4912185;29;782;-61
2021/12/07 08:41:51;;;;;;;;;;;;;;;;;;4912214;29;872;-61
2021/12/07 08:44:16;;;;;;;;;;;;;;;;;;4912108;29;857;-60
2021/12/07 08:46:42;;;;;;;;;;;;;;;;;;4910677;29;1565;-60
2021/12/07 08:49:07;;;;;;;;;;;;;;;;;;4914494;29;801;-60
2021/12/07 08:51:33;;;;;;;;;;;;;;;;;;4915791;29;801;-60
2021/12/07 08:54:16;;;;;;;;;;;;;;;;;;4915361;29;972;-61
2021/12/07 08:59:44;;;;;;;;;;;;;;;;;;4914945;29;672;-61
2021/12/07 09:02:11;;;;;;;;;;;;;;;;;;4915124;29;935;-60
2021/12/07 09:04:37;;;;;;;;;;;;;;;;;;4915439;29;872;-60
2021/12/07 09:07:04;;;;;;;;;;;;;;;;;;4915151;29;889;-60
2021/12/07 09:09:30;;;;;;;;;;;;;;;;;;4915022;29;1330;-60
2021/12/07 09:11:56;;;;;;;;;;;;;;;;;;4915169;29;790;-61
2021/12/07 09:14:22;;;;;;;;;;;;;;;;;;4914741;29;873;-60
2021/12/07 09:16:48;;;;;;;;;;;;;;;;;;4915117;29;834;-61
2021/12/07 09:19:14;;;;;;;;;;;;;;;;;;4914876;28;1911;-61
2021/12/07 09:21:39;;;;;;;;;;;;;;;;;;4915122;29;845;-61
2021/12/07 09:24:05;;;;;;;;;;;;;;;;;;4914798;29;826;-61
2021/12/07 09:26:30;;;;;;;;;;;;;;;;;;4914500;29;937;-61
2021/12/07 09:28:56;;;;;;;;;;;;;;;;;;4914769;29;897;-60
2021/12/07 09:31:22;;;;;;;;;;;;;;;;;;4914606;29;894;-61
2021/12/07 09:33:48;;;;;;;;;;;;;;;;;;4914876;29;834;-60
2021/12/07 09:36:14;;;;;;;;;;;;;;;;;;4912941;29;1387;-60
2021/12/07 09:38:40;;;;;;;;;;;;;;;;;;4914038;29;1903;-60
2021/12/07 09:41:06;;;;;;;;;;;;;;;;;;4914106;29;861;-60
2021/12/07 09:43:32;;;;;;;;;;;;;;;;;;4913972;29;806;-61
2021/12/07 09:45:57;;;;;;;;;;;;;;;;;;4914168;29;901;-60
2021/12/07 09:48:24;;;;;;;;;;;;;;;;;;4914126;29;834;-60
2021/12/07 09:50:51;;;;;;;;;;;;;;;;;;4914297;29;946;-60
2021/12/07 09:53:17;;;;;;;;;;;;;;;;;;4928026;29;1032;-60
2021/12/07 09:55:43;;;;;;;;;;;;;;;;;;4914211;29;888;-60
2021/12/07 09:58:09;;;;;;;;;;;;;;;;;;4913230;29;2234;-61
2021/12/07 10:00:36;;;;;;;;;;;;;;;;;;4927029;29;968;-61
2021/12/07 10:03:01;;;;;;;;;;;;;;;;;;4913711;29;841;-60
2021/12/07 10:05:29;;;;;;;;;;;;;;;;;;4913475;29;945;-60
2021/12/07 10:07:54;;;;;;;;;;;;;;;;;;4914065;29;843;-60
2021/12/07 10:10:19;;;;;;;;;;;;;;;;;;4913272;29;1382;-60
2021/12/07 10:12:45;;;;;;;;;;;;;;;;;;4913675;29;775;-60
2021/12/07 10:15:11;;;;;;;;;;;;;;;;;;4913264;29;814;-60
2021/12/07 10:17:37;;;;;;;;;;;;;;;;;;4913537;29;1972;-60
2021/12/07 10:20:23;;;;;;;;;;;;;;;;;;4913452;29;814;-60
2021/12/07 10:22:51;;;;;;;;;;;;;;;;;;4913320;29;893;-61
2021/12/07 10:25:26;;;;;;;;;;;;;;;;;;4913101;29;806;-60
2021/12/07 10:27:52;;;;;;;;;;;;;;;;;;4913288;29;824;-60
2021/12/07 10:30:19;;;;;;;;;;;;;;;;;;4913311;29;779;-60
2021/12/07 10:32:58;;;;;;;;;;;;;;;;;;4913592;29;1325;-60
2021/12/07 10:35:27;;;;;;;;;;;;;;;;;;4913088;29;892;-60
2021/12/07 10:38:11;;;;;;;;;;;;;;;;;;4912773;29;1911;-60
2021/12/07 10:40:53;;;;;;;;;;;;;;;;;;4912916;29;823;-60
2021/12/07 10:43:18;;;;;;;;;;;;;;;;;;4913340;29;758;-60
2021/12/07 10:45:43;;;;;;;;;;;;;;;;;;4913048;29;994;-60
2021/12/07 10:48:22;;;;;;;;;;;;;;;;;;4927276;29;791;-60
2021/12/07 10:50:47;;;;;;;;;;;;;;;;;;4913267;29;755;-60
2021/12/07 10:53:13;;;;;;;;;;;;;;;;;;4927111;29;925;-61
2021/12/07 10:55:39;;;;;;;;;;;;;;;;;;4913106;29;920;-60
2021/12/07 10:58:05;;;;;;;;;;;;;;;;;;4913032;29;2052;-60
2021/12/07 11:00:34;;;;;;;;;;;;;;;;;;4913461;29;877;-61
2021/12/07 11:03:01;;;;;;;;;;;;;;;;;;4913664;29;849;-66
2021/12/07 11:05:28;;;;;;;;;;;;;;;;;;4912385;29;815;-66
2021/12/07 11:07:54;;;;;;;;;;;;;;;;;;4911161;29;865;-66
2021/12/07 11:10:27;;;;;;;;;;;;;;;;;;4912454;29;1163;-66
2021/12/07 11:13:02;;;;;;;;;;;;;;;;;;4912849;29;865;-66
2021/12/07 11:15:29;;;;;;;;;;;;;;;;;;4912621;29;905;-66
2021/12/07 11:17:59;;;;;;;;;;;;;;;;;;4913112;29;1972;-66
2021/12/07 11:20:25;;;;;;;;;;;;;;;;;;4912795;29;1063;-66
2021/12/07 11:23:12;;;;;;;;;;;;;;;;;;4913072;29;914;-66
2021/12/07 11:31:33;;;;;;;;;;;;;;;;;;4913082;29;715;-66
2021/12/07 11:34:09;;;;;;;;;;;;;;;;;;4912766;29;901;-66
2021/12/07 11:36:40;;;;;;;;;;;;;;;;;;4912292;29;857;-66
2021/12/07 11:39:38;;;;;;;;;;;;;;;;;;4912569;29;1906;-66
2021/12/07 11:42:07;;;;;;;;;;;;;;;;;;4901083;28;1164;-66
2021/12/07 11:44:34;;;;;;;;;;;;;;;;;;4912334;29;771;-66
2021/12/07 11:47:00;;;;;;;;;;;;;;;;;;4911656;29;908;-66
2021/12/07 11:49:27;;;;;;;;;;;;;;;;;;4912402;29;936;-66
2021/12/07 11:51:53;;;;;;;;;;;;;;;;;;4912309;29;1016;-66
2021/12/07 11:54:20;;;;;;;;;;;;;;;;;;4911625;29;1138;-66
2021/12/07 11:56:46;;;;;;;;;;;;;;;;;;4912276;29;1673;-66
2021/12/07 11:59:11;;;;;;;;;;;;;;;;;;4911928;29;1962;-66
2021/12/07 12:01:37;;;;;;;;;;;;;;;;;;4911738;29;925;-66
2021/12/07 12:04:02;;;;;;;;;;;;;;;;;;4911975;29;783;-66
2021/12/07 12:06:28;;;;;;;;;;;;;;;;;;4911807;29;849;-66
2021/12/07 12:08:54;;;;;;;;;;;;;;;;;;4912426;29;839;-66
2021/12/07 12:11:38;;;;;;;;;;;;;;;;;;4911773;29;1111;-66
2021/12/07 12:14:22;;;;;;;;;;;;;;;;;;4911901;29;858;-66
2021/12/07 12:17:02;;;;;;;;;;;;;;;;;;4912344;29;849;-67
2021/12/07 12:19:39;;;;;;;;;;;;;;;;;;4911801;29;929;-67
2021/12/07 12:22:23;;;;;;;;;;;;;;;;;;4912028;29;787;-66
2021/12/07 12:24:50;;;;;;;;;;;;;;;;;;4915715;29;842;-66
2021/12/07 12:27:16;;;;;;;;;;;;;;;;;;4915338;29;880;-66
2021/12/07 12:29:43;;;;;;;;;;;;;;;;;;4915225;29;885;-66
2021/12/07 12:32:09;;;;;;;;;;;;;;;;;;4915494;29;902;-66
2021/12/07 12:34:36;;;;;;;;;;;;;;;;;;4914616;29;803;-66
2021/12/07 12:37:01;;;;;;;;;;;;;;;;;;4915568;29;794;-66
2021/12/07 12:39:40;;;;;;;;;;;;;;;;;;4914450;29;1918;-66
2021/12/07 12:42:06;;;;;;;;;;;;;;;;;;4915511;29;1134;-66
2021/12/07 12:44:35;;;;;;;;;;;;;;;;;;4915086;29;1131;-66
2021/12/07 12:47:00;;;;;;;;;;;;;;;;;;4915322;29;861;-66
2021/12/07 12:49:35;;;;;;;;;;;;;;;;;;4914927;29;956;-66
2021/12/07 12:52:01;;;;;;;;;;;;;;;;;;4915711;29;786;-66
2021/12/07 12:54:26;;;;;;;;;;;;;;;;;;4914557;29;984;-66
2021/12/07 12:56:51;;;;;;;;;;;;;;;;;;4915023;29;818;-66
2021/12/07 12:59:18;;;;;;;;;;;;;;;;;;4914890;29;1903;-66
2021/12/07 13:01:46;;;;;;;;;;;;;;;;;;4913806;29;1221;-66
2021/12/07 13:04:14;;;;;;;;;;;;;;;;;;4915030;29;779;-66
2021/12/07 13:06:49;;;;;;;;;;;;;;;;;;4929482;29;885;-65
2021/12/07 13:09:18;;;;;;;;;;;;;;;;;;4915254;29;1186;-66
2021/12/07 13:11:43;;;;;;;;;;;;;;;;;;4913834;29;1489;-66
2021/12/07 13:14:13;;;;;;;;;;;;;;;;;;4914792;29;889;-66
2021/12/07 13:16:47;;;;;;;;;;;;;;;;;;4914905;29;865;-66
2021/12/07 13:19:12;;;;;;;;;;;;;;;;;;4915171;29;1973;-66
2021/12/07 13:21:39;;;;;;;;;;;;;;;;;;4914855;28;917;-66
2021/12/07 13:24:24;;;;;;;;;;;;;;;;;;4915248;29;866;-66
2021/12/07 13:26:52;;;;;;;;;;;;;;;;;;4910785;29;1481;-66
2021/12/07 13:29:21;;;;;;;;;;;;;;;;;;4914809;29;861;-66
2021/12/07 13:31:51;;;;;;;;;;;;;;;;;;4914528;29;865;-66
2021/12/07 13:34:23;;;;;;;;;;;;;;;;;;4913978;29;877;-66
2021/12/07 13:37:02;;;;;;;;;;;;;;;;;;4914398;29;853;-66
2021/12/07 13:39:27;;;;;;;;;;;;;;;;;;4913980;29;1911;-66
2021/12/07 13:42:04;;;;;;;;;;;;;;;;;;4913948;29;1379;-65
2021/12/07 13:44:31;;;;;;;;;;;;;;;;;;4913694;29;995;-65
2021/12/07 13:46:57;;;;;;;;;;;;;;;;;;4914110;29;897;-65
2021/12/07 13:49:23;;;;;;;;;;;;;;;;;;4913920;29;818;-65
2021/12/07 13:51:48;;;;;;;;;;;;;;;;;;4914095;29;992;-65
2021/12/07 13:54:18;;;;;;;;;;;;;;;;;;4914030;29;1026;-65
2021/12/07 13:56:44;;;;;;;;;;;;;;;;;;4912294;29;1306;-65
2021/12/07 13:59:11;;;;;;;;;;;;;;;;;;4911181;29;2643;-65
2021/12/07 14:01:39;;;;;;;;;;;;;;;;;;4912891;29;846;-65
2021/12/07 14:04:05;;;;;;;;;;;;;;;;;;4912035;29;831;-65
2021/12/07 14:06:31;;;;;;;;;;;;;;;;;;4911858;29;924;-65
2021/12/07 14:09:07;;;;;;;;;;;;;;;;;;4913851;29;875;-64
2021/12/07 14:11:33;;;;;;;;;;;;;;;;;;4913038;29;1256;-64
2021/12/07 14:13:59;;;;;;;;;;;;;;;;;;4913647;29;925;-65
2021/12/07 14:16:25;;;;;;;;;;;;;;;;;;4913524;29;1174;-65
2021/12/07 14:18:50;;;;;;;;;;;;;;;;;;4913410;29;1972;-65
2021/12/07 14:21:16;;;;;;;;;;;;;;;;;;4913554;29;985;-64
2021/12/07 14:23:45;;;;;;;;;;;;;;;;;;4913073;29;901;-64
2021/12/07 14:26:11;;;;;;;;;;;;;;;;;;4913305;29;929;-64
2021/12/07 14:28:44;;;;;;;;;;;;;;;;;;4913006;29;1675;-63
2021/12/07 14:31:23;;;;;;;;;;;;;;;;;;4913180;29;931;-63
2021/12/07 14:33:48;;;;;;;;;;;;;;;;;;4913226;29;821;-63
2021/12/07 14:36:16;;;;;;;;;;;;;;;;;;4913707;29;832;-63
2021/12/07 14:38:41;;;;;;;;;;;;;;;;;;4912720;29;1961;-63
2021/12/07 14:41:09;;;;;;;;;;;;;;;;;;4913523;29;820;-63
2021/12/07 14:43:35;;;;;;;;;;;;;;;;;;4912923;29;877;-63
2021/12/07 14:46:02;;;;;;;;;;;;;;;;;;4912607;29;795;-63
2021/12/07 14:48:27;;;;;;;;;;;;;;;;;;4913033;29;854;-63
2021/12/07 14:50:52;;;;;;;;;;;;;;;;;;4913039;29;948;-63
2021/12/07 14:53:30;;;;;;;;;;;;;;;;;;4913327;29;909;-63
2021/12/07 14:55:55;;;;;;;;;;;;;;;;;;4913421;29;928;-63
2021/12/07 14:58:28;;;;;;;;;;;;;;;;;;4913051;29;1919;-64
2021/12/07 15:00:54;;;;;;;;;;;;;;;;;;4913613;29;902;-64
2021/12/07 15:03:19;;;;;;;;;;;;;;;;;;4913223;29;897;-64
2021/12/07 15:05:44;;;;;;;;;;;;;;;;;;4912959;29;993;-63
2021/12/07 15:08:10;;;;;;;;;;;;;;;;;;4913175;29;834;-64
2021/12/07 15:10:35;;;;;;;;;;;;;;;;;;4926981;29;1228;-64
2021/12/07 15:13:00;;;;;;;;;;;;;;;;;;4913040;29;845;-64
2021/12/07 15:15:27;;;;;;;;;;;;;;;;;;4913331;29;988;-64
2021/12/07 15:17:52;;;;;;;;;;;;;;;;;;4912896;29;1918;-64
2021/12/07 15:20:17;;;;;;;;;;;;;;;;;;4913252;29;920;-64
2021/12/07 15:22:43;;;;;;;;;;;;;;;;;;4912646;29;887;-63
2021/12/07 15:25:11;;;;;;;;;;;;;;;;;;4912960;29;980;-65
2021/12/07 15:27:36;;;;;;;;;;;;;;;;;;4912522;29;877;-66
2021/12/07 15:30:02;;;;;;;;;;;;;;;;;;4912813;29;957;-64
2021/12/07 15:32:27;;;;;;;;;;;;;;;;;;4927000;29;968;-65
2021/12/07 15:34:56;;;;;;;;;;;;;;;;;;4912732;29;886;-63
2021/12/07 15:37:22;;;;;;;;;;;;;;;;;;4896201;28;1980;-64
2021/12/07 15:39:50;;;;;;;;;;;;;;;;;;4893280;28;901;-64
2021/12/07 15:42:20;;;;;;;;;;;;;;;;;;4893521;28;889;-63
2021/12/07 15:44:52;;;;;;;;;;;;;;;;;;4893382;28;818;-63
2021/12/07 15:47:18;;;;;;;;;;;;;;;;;;4893697;29;846;-66
2021/12/07 15:49:48;;;;;;;;;;;;;;;;;;4892834;28;885;-64
2021/12/07 15:52:16;;;;;;;;;;;;;;;;;;4893198;29;894;-63
2021/12/07 15:54:52;;;;;;;;;;;;;;;;;;4892581;28;980;-64
2021/12/07 15:57:17;;;;;;;;;;;;;;;;;;4892463;28;1952;-63
2021/12/07 15:59:52;;;;;;;;;;;;;;;;;;4892546;28;870;-63
2021/12/07 16:02:21;;;;;;;;;;;;;;;;;;4893608;28;771;-63
2021/12/07 16:04:46;;;;;;;;;;;;;;;;;;4893244;28;1021;-63
2021/12/07 16:07:22;;;;;;;;;;;;;;;;;;4893010;28;838;-63
2021/12/07 16:10:04;;;;;;;;;;;;;;;;;;4893563;28;1952;-63
2021/12/07 16:12:29;;;;;;;;;;;;;;;;;;4905207;29;1518;-60
2021/12/07 16:15:11;;;;;;;;;;;;;;;;;;4911496;29;886;-59
2021/12/07 16:17:37;;;;;;;;;;;;;;;;;;4911451;29;2040;-60
2021/12/07 16:20:04;;;;;;;;;;;;;;;;;;4909875;29;1468;-60
2021/12/07 16:22:30;;;;;;;;;;;;;;;;;;4912004;29;829;-60
2021/12/07 16:24:55;;;;;;;;;;;;;;;;;;4911582;29;976;-59
2021/12/07 16:27:20;;;;;;;;;;;;;;;;;;4912204;29;964;-60
2021/12/07 16:29:46;;;;;;;;;;;;;;;;;;4911534;29;976;-59
2021/12/07 16:32:12;;;;;;;;;;;;;;;;;;4911519;29;781;-59
2021/12/07 16:34:37;;;;;;;;;;;;;;;;;;4910279;29;1549;-60
2021/12/07 16:37:04;;;;;;;;;;;;;;;;;;4911583;29;830;-60
2021/12/07 16:39:29;;;;;;;;;;;;;;;;;;4911944;29;2069;-60
2021/12/07 16:41:54;;;;;;;;;;;;;;;;;;4911672;29;838;-59
2021/12/07 16:44:19;;;;;;;;;;;;;;;;;;4912318;29;893;-60
2021/12/07 16:46:45;;;;;;;;;;;;;;;;;;4911842;29;925;-60
2021/12/07 16:49:10;;;;;;;;;;;;;;;;;;4926846;29;881;-60
2021/12/07 16:51:36;;;;;;;;;;;;;;;;;;4911798;29;980;-60
2021/12/07 16:54:02;;;;;;;;;;;;;;;;;;4911833;29;884;-60
2021/12/07 16:56:28;;;;;;;;;;;;;;;;;;4912388;29;952;-60
2021/12/07 16:58:53;;;;;;;;;;;;;;;;;;4910309;29;1911;-59
2021/12/07 17:01:18;;;;;;;;;;;;;;;;;;4912105;29;932;-60
2021/12/07 17:03:45;;;;;;;;;;;;;;;;;;4912320;29;822;-60
2021/12/07 17:06:11;;;;;;;;;;;;;;;;;;4912330;29;1083;-59
2021/12/07 17:08:37;;;;;;;;;;;;;;;;;;4912851;29;825;-60
2021/12/07 17:11:02;;;;;;;;;;;;;;;;;;4914949;29;1095;-60
2021/12/07 17:13:28;;;;;;;;;;;;;;;;;;4915534;29;889;-59
2021/12/07 17:15:53;;;;;;;;;;;;;;;;;;4914864;29;886;-60
2021/12/07 17:18:18;;;;;;;;;;;;;;;;;;4914908;29;1968;-59
2021/12/07 17:20:46;;;;;;;;;;;;;;;;;;4929086;29;937;-59
2021/12/07 17:23:12;;;;;;;;;;;;;;;;;;4914890;29;854;-60
2021/12/07 17:25:38;;;;;;;;;;;;;;;;;;4914416;29;842;-59
2021/12/07 17:28:03;;;;;;;;;;;;;;;;;;4914185;29;977;-59
2021/12/07 17:30:29;;;;;;;;;;;;;;;;;;4914077;29;965;-60
2021/12/07 17:32:55;;;;;;;;;;;;;;;;;;4913970;29;826;-60
2021/12/07 17:35:20;;;;;;;;;;;;;;;;;;4914374;29;1122;-59
2021/12/07 17:37:46;;;;;;;;;;;;;;;;;;4914107;29;1962;-59
2021/12/07 17:40:13;;;;;;;;;;;;;;;;;;4912895;29;1394;-59
2021/12/07 17:42:39;;;;;;;;;;;;;;;;;;4928684;29;1071;-60
2021/12/07 17:45:05;;;;;;;;;;;;;;;;;;4914322;29;993;-60
2021/12/07 17:47:30;;;;;;;;;;;;;;;;;;4914046;29;854;-60
2021/12/07 17:49:56;;;;;;;;;;;;;;;;;;4913795;29;1046;-60
2021/12/07 17:52:21;;;;;;;;;;;;;;;;;;4914068;29;893;-60
2021/12/07 17:54:46;;;;;;;;;;;;;;;;;;4913997;28;892;-60
2021/12/07 17:57:12;;;;;;;;;;;;;;;;;;4914135;29;846;-60
2021/12/07 17:59:38;;;;;;;;;;;;;;;;;;4913396;29;1902;-60
2021/12/07 18:02:05;;;;;;;;;;;;;;;;;;4912287;29;913;-59
2021/12/07 18:04:30;;;;;;;;;;;;;;;;;;4913913;29;831;-60
2021/12/07 18:06:55;;;;;;;;;;;;;;;;;;4913524;29;927;-60
2021/12/07 18:09:22;;;;;;;;;;;;;;;;;;4913907;29;890;-59
2021/12/07 18:11:49;;;;;;;;;;;;;;;;;;4913508;29;1210;-60
2021/12/07 18:14:15;;;;;;;;;;;;;;;;;;4913831;29;1056;-60
2021/12/07 18:16:41;;;;;;;;;;;;;;;;;;4911982;29;1248;-60
2021/12/07 18:19:09;;;;;;;;;;;;;;;;;;4913918;29;1923;-59
2021/12/07 18:21:34;;;;;;;;;;;;;;;;;;4912776;29;866;-60
2021/12/07 18:24:00;;;;;;;;;;;;;;;;;;4912136;29;873;-61
2021/12/07 18:26:26;;;;;;;;;;;;;;;;;;4913734;29;869;-61
2021/12/07 18:28:51;;;;;;;;;;;;;;;;;;4913289;29;764;-61
2021/12/07 18:31:17;;;;;;;;;;;;;;;;;;4928343;28;900;-62
2021/12/07 18:33:43;;;;;;;;;;;;;;;;;;4928308;29;948;-61
2021/12/07 18:36:09;;;;;;;;;;;;;;;;;;4913794;29;896;-60
2021/12/07 18:38:36;;;;;;;;;;;;;;;;;;4913668;29;1888;-61
2021/12/07 18:41:03;;;;;;;;;;;;;;;;;;4913388;29;864;-61
2021/12/07 18:43:30;;;;;;;;;;;;;;;;;;4913675;29;778;-61
2021/12/07 18:45:55;;;;;;;;;;;;;;;;;;4913279;29;838;-61
2021/12/07 18:48:22;;;;;;;;;;;;;;;;;;4913594;29;933;-61
2021/12/07 18:50:49;;;;;;;;;;;;;;;;;;4912268;29;838;-61
2021/12/07 18:53:15;;;;;;;;;;;;;;;;;;4913716;29;810;-62
2021/12/07 18:55:40;;;;;;;;;;;;;;;;;;4913466;29;892;-61
2021/12/07 18:58:07;;;;;;;;;;;;;;;;;;4913598;29;1926;-61
2021/12/07 19:00:32;;;;;;;;;;;;;;;;;;4913673;29;992;-62
2021/12/07 19:02:58;;;;;;;;;;;;;;;;;;4913135;29;917;-62
2021/12/07 19:05:23;;;;;;;;;;;;;;;;;;4913684;29;1078;-62